Akqi, China
Current Conditions -  °F | °C
As of 2:00 AM on Friday 30 Jan 2015 (Local Time) from ZWSH Reporting Station
Light Snow Light Snow  
Wind Chill: 21°   Ceiling: NA
Heat Index: 21°   Visibility: NA
Dew Point: 19°   Wind: 2mph
Humidity: 93%   Direction: 50°NE
Pressure: 30.24"   Gusts: NA
Location:  40.93°N, 78.45°E
Report Text: ZWSH 291800Z AUTO 05001MPS //// -SN M06/M07 Q1024
Loading
Personal Weather Stations






























Interactive Weather Map New forecast layout! Learn more

10-Day Weather Forecast

Advertisements
Track Severe Weather on mobile